Time;durP1;ratioP1;P1;durP2;ratioP2;P2;SDS_P1;SDS_P2;PMS_P1;PMS_P2;Temp;Humidity;BMP_temperature;BMP_pressure;BME280_temperature;BME280_humidity;BME280_pressure;Samples;Min_cycle;Max_cycle;Signal;HPM_P1;HPM_P2
2022/12/25 00:00:38;;;;;;;40.10;30.13;;;10.00;99.90;;;;;;4217993;28;20101;-89
2022/12/25 00:02:58;;;;;;;41.22;30.40;;;10.00;99.90;;;;;;4231926;28;20287;-88
2022/12/25 00:05:19;;;;;;;38.72;29.90;;;10.00;99.90;;;;;;4228974;28;20077;-89
2022/12/25 00:07:38;;;;;;;43.67;32.15;;;10.00;99.90;;;;;;4233883;28;20092;-89
2022/12/25 00:09:58;;;;;;;49.88;32.25;;;10.00;99.90;;;;;;4218936;28;20067;-89
2022/12/25 00:12:19;;;;;;;41.55;30.52;;;9.90;99.90;;;;;;4224214;28;20086;-89
2022/12/25 00:14:39;;;;;;;44.35;28.55;;;9.90;99.90;;;;;;4224328;28;20391;-89
2022/12/25 00:17:00;;;;;;;35.15;30.33;;;9.90;99.90;;;;;;4221697;28;20047;-89
2022/12/25 00:19:20;;;;;;;39.05;29.10;;;9.90;99.90;;;;;;4229778;28;20050;-88
2022/12/25 00:21:40;;;;;;;37.40;28.10;;;9.90;99.90;;;;;;4226632;28;20046;-88
2022/12/25 00:24:00;;;;;;;42.85;29.15;;;9.90;99.90;;;;;;4223403;28;20073;-88
2022/12/25 00:26:20;;;;;;;44.25;30.60;;;9.90;99.90;;;;;;4224112;28;20062;-89
2022/12/25 00:28:40;;;;;;;39.85;27.42;;;9.90;99.90;;;;;;4232657;28;20039;-89
2022/12/25 00:31:12;;;;;;;40.97;29.95;;;9.90;99.90;;;;;;4231801;28;20366;-89
2022/12/25 00:33:35;;;;;;;47.67;29.63;;;9.90;99.90;;;;;;4235859;28;20048;-88
2022/12/25 00:35:59;;;;;;;35.45;28.02;;;9.90;99.90;;;;;;4230659;28;20365;-89
2022/12/25 00:38:19;;;;;;;34.05;29.35;;;9.90;99.90;;;;;;4232364;28;20051;-88
2022/12/25 00:40:49;;;;;;;44.63;28.83;;;9.90;99.90;;;;;;4222406;28;20473;-88
2022/12/25 00:43:09;;;;;;;40.85;28.83;;;9.90;99.90;;;;;;4237703;28;20039;-89
2022/12/25 00:45:39;;;;;;;38.47;28.75;;;9.90;99.90;;;;;;4225767;28;20127;-89
2022/12/25 00:48:00;;;;;;;42.75;29.17;;;9.80;99.90;;;;;;4249914;28;20039;-89
2022/12/25 00:50:24;;;;;;;41.78;28.92;;;9.80;99.90;;;;;;4232018;28;20070;-88
2022/12/25 00:52:44;;;;;;;37.20;26.77;;;9.80;99.90;;;;;;4240941;28;20039;-89
2022/12/25 00:55:05;;;;;;;34.88;25.73;;;9.90;99.90;;;;;;4233391;28;20051;-88
2022/12/25 00:57:25;;;;;;;41.40;25.90;;;9.90;99.90;;;;;;4223821;28;20090;-88
2022/12/25 00:59:44;;;;;;;34.63;27.65;;;9.80;99.90;;;;;;4219619;28;20068;-89
2022/12/25 01:02:22;;;;;;;33.58;27.65;;;9.90;99.90;;;;;;4231716;28;20354;-89
2022/12/25 01:04:42;;;;;;;36.78;26.27;;;9.80;99.90;;;;;;4233941;28;20111;-89
2022/12/25 01:07:02;;;;;;;39.63;26.25;;;9.80;99.90;;;;;;4233352;28;20050;-89
2022/12/25 01:12:02;;;;;;;38.17;26.92;;;9.80;99.90;;;;;;4229582;28;20239;-88
2022/12/25 01:14:22;;;;;;;38.05;28.55;;;9.80;99.90;;;;;;4222217;28;20074;-88
2022/12/25 01:16:43;;;;;;;31.77;24.83;;;9.60;99.90;;;;;;4229678;28;20295;-88
2022/12/25 01:19:03;;;;;;;31.08;24.70;;;9.60;99.90;;;;;;4214370;28;20073;-88
2022/12/25 01:21:23;;;;;;;27.60;24.77;;;9.70;99.90;;;;;;4223462;28;20051;-89
2022/12/25 01:23:43;;;;;;;32.42;25.33;;;9.70;99.90;;;;;;4227482;28;20054;-88
2022/12/25 01:26:05;;;;;;;33.65;25.90;;;9.70;99.90;;;;;;4226964;28;20295;-88
2022/12/25 01:28:25;;;;;;;34.03;25.70;;;9.70;99.90;;;;;;4215391;28;20069;-88
2022/12/25 01:30:48;;;;;;;27.17;23.70;;;9.70;99.90;;;;;;4216904;28;20047;-89
2022/12/25 01:33:08;;;;;;;31.98;24.08;;;9.70;99.90;;;;;;4222948;28;20247;-88
2022/12/25 01:35:28;;;;;;;31.20;21.40;;;9.70;99.90;;;;;;4226934;28;20063;-88
2022/12/25 01:37:50;;;;;;;29.35;21.98;;;9.70;99.90;;;;;;4217927;28;20070;-88
2022/12/25 01:40:10;;;;;;;30.33;24.02;;;9.70;99.90;;;;;;4226777;28;20080;-89
2022/12/25 01:42:30;;;;;;;33.35;24.70;;;9.70;99.90;;;;;;4230604;28;20035;-88
2022/12/25 01:44:50;;;;;;;30.27;22.25;;;9.60;99.90;;;;;;4227610;28;20101;-88
2022/12/25 01:47:09;;;;;;;28.23;21.17;;;9.60;99.90;;;;;;4223952;28;20047;-89
2022/12/25 01:49:33;;;;;;;25.73;20.33;;;9.70;99.90;;;;;;4222833;28;20081;-88
2022/12/25 01:52:01;;;;;;;28.70;19.13;;;9.70;99.90;;;;;;4231377;28;20089;-88
2022/12/25 01:54:34;;;;;;;26.98;21.02;;;9.80;99.90;;;;;;4229456;28;20042;-89
2022/12/25 01:56:58;;;;;;;29.02;22.27;;;9.80;99.90;;;;;;4222734;28;20075;-89
2022/12/25 01:59:22;;;;;;;29.10;20.42;;;9.80;99.90;;;;;;4231264;28;20370;-89
2022/12/25 02:01:42;;;;;;;33.13;21.60;;;9.70;99.90;;;;;;4226777;28;20039;-88
2022/12/25 02:04:15;;;;;;;27.42;20.85;;;9.80;99.90;;;;;;4229666;28;20082;-89
2022/12/25 02:06:35;;;;;;;25.90;20.67;;;9.80;99.90;;;;;;4229014;28;20351;-89
2022/12/25 02:08:57;;;;;;;28.45;21.75;;;9.80;99.90;;;;;;4214050;28;20308;-89
2022/12/25 02:13:55;;;;;;;40.88;23.13;;;9.60;99.90;;;;;;4232285;28;20045;-89
2022/12/25 02:16:19;;;;;;;36.97;21.80;;;9.60;99.90;;;;;;4229361;28;20055;-88
2022/12/25 02:18:45;;;;;;;36.22;21.17;;;9.70;99.90;;;;;;4216168;28;20067;-89
2022/12/25 02:21:24;;;;;;;31.10;23.00;;;9.70;99.90;;;;;;4227362;28;20051;-88
2022/12/25 02:24:20;;;;;;;37.58;22.23;;;9.70;99.90;;;;;;4231987;28;20077;-88
2022/12/25 02:27:01;;;;;;;40.83;24.52;;;9.80;99.90;;;;;;4167009;28;20083;-89
2022/12/25 02:29:44;;;;;;;33.65;23.45;;;9.80;99.90;;;;;;4226652;28;20046;-88
2022/12/25 02:32:27;;;;;;;38.80;23.77;;;9.90;99.90;;;;;;4208892;28;20252;-89
2022/12/25 02:34:59;;;;;;;28.15;21.85;;;9.80;99.90;;;;;;4213955;28;20059;-89
2022/12/25 02:37:31;;;;;;;31.85;23.50;;;9.70;99.90;;;;;;4224298;28;20043;-89
2022/12/25 02:40:03;;;;;;;28.67;21.98;;;9.80;99.90;;;;;;4229231;28;20378;-89
2022/12/25 03:06:41;;;;;;;29.27;22.35;;;9.80;99.90;;;;;;4218807;28;20116;-88
2022/12/25 03:06:41;;;;;;;30.80;21.20;;;9.70;99.90;;;;;;4228988;28;20073;-88
2022/12/25 03:11:49;;;;;;;157.02;25.95;;;9.60;99.90;;;;;;4226687;28;20058;-88
2022/12/25 03:16:52;;;;;;;38.55;22.20;;;9.20;99.90;;;;;;4233161;28;20086;-88
2022/12/25 03:27:32;;;;;;;31.20;20.85;;;9.40;99.90;;;;;;4179059;28;20120;-88
2022/12/25 03:32:46;;;;;;;67.07;24.73;;;9.20;99.90;;;;;;4232134;28;20051;-88
2022/12/25 03:35:22;;;;;;;39.88;21.60;;;9.10;99.90;;;;;;4215652;28;20051;-88
2022/12/25 04:37:07;;;;;;;49.58;22.80;;;9.20;99.90;;;;;;4232096;28;20039;-88
2022/12/25 04:39:27;;;;;;;97.22;28.92;;;9.20;99.90;;;;;;4224898;28;20055;-88
2022/12/25 04:41:47;;;;;;;224.75;40.85;;;9.20;99.90;;;;;;4224010;28;20067;-89
2022/12/25 04:44:08;;;;;;;111.43;31.60;;;9.20;99.90;;;;;;4223669;28;20111;-88
2022/12/25 04:46:28;;;;;;;41.53;27.02;;;9.20;99.90;;;;;;4230021;28;20088;-88
2022/12/25 04:48:48;;;;;;;68.28;29.25;;;9.20;99.90;;;;;;4226759;28;20459;-89
2022/12/25 04:51:17;;;;;;;34.63;25.17;;;9.20;99.90;;;;;;4223982;28;20369;-88
2022/12/25 04:53:37;;;;;;;72.88;30.70;;;9.20;99.90;;;;;;4228106;28;20059;-89
2022/12/25 04:56:01;;;;;;;77.47;29.30;;;9.20;99.90;;;;;;4215703;28;20074;-88
2022/12/25 04:58:22;;;;;;;46.30;27.50;;;9.20;99.90;;;;;;4213920;28;20086;-88
2022/12/25 05:00:43;;;;;;;48.78;26.63;;;9.20;99.90;;;;;;4216234;28;20047;-88
2022/12/25 05:03:03;;;;;;;32.25;25.23;;;9.20;99.90;;;;;;4215518;28;20089;-88
2022/12/25 05:05:25;;;;;;;43.20;24.92;;;9.20;99.90;;;;;;4230640;28;20042;-89
2022/12/25 05:07:45;;;;;;;67.78;26.77;;;9.20;99.90;;;;;;4229024;28;20051;-89
2022/12/25 05:10:08;;;;;;;105.68;25.70;;;9.20;99.90;;;;;;4226845;28;20046;-88
2022/12/25 05:12:28;;;;;;;296.63;39.15;;;9.20;99.90;;;;;;4226388;28;20036;-88
2022/12/25 05:14:48;;;;;;;327.45;41.67;;;9.20;99.90;;;;;;4240083;28;20050;-89
2022/12/25 05:17:08;;;;;;;254.88;33.85;;;9.10;99.90;;;;;;4238450;28;20062;-87
2022/12/25 05:19:28;;;;;;;61.70;23.58;;;9.10;99.90;;;;;;4236723;28;20045;-88
2022/12/25 05:21:48;;;;;;;51.75;22.95;;;9.10;99.90;;;;;;4225347;28;20062;-88
2022/12/25 05:24:07;;;;;;;270.15;34.38;;;9.20;99.90;;;;;;4229631;28;20104;-88
2022/12/25 05:26:27;;;;;;;258.70;36.78;;;9.20;99.90;;;;;;4221509;28;20055;-88
2022/12/25 05:28:48;;;;;;;197.82;33.55;;;9.20;99.90;;;;;;4226903;28;20061;-88
2022/12/25 05:31:07;;;;;;;119.03;27.85;;;9.10;99.90;;;;;;4229965;28;20387;-88
2022/12/25 05:33:28;;;;;;;74.13;23.63;;;9.10;99.90;;;;;;4229231;28;20059;-88
2022/12/25 05:35:49;;;;;;;365.75;39.22;;;9.20;99.90;;;;;;4223298;28;20047;-88
2022/12/25 05:38:09;;;;;;;107.47;21.77;;;9.10;99.90;;;;;;4222714;28;20083;-88
2022/12/25 05:40:28;;;;;;;78.70;21.50;;;9.10;99.90;;;;;;4230886;28;20054;-88
2022/12/25 05:42:48;;;;;;;130.55;24.67;;;9.10;99.90;;;;;;4222423;28;20119;-88
2022/12/25 05:45:09;;;;;;;133.55;25.20;;;9.10;99.90;;;;;;4231380;28;20074;-89
2022/12/25 05:47:29;;;;;;;40.70;21.95;;;9.20;99.90;;;;;;4223596;28;20051;-88
2022/12/25 05:49:49;;;;;;;139.25;27.83;;;9.20;99.90;;;;;;4222386;28;20325;-89
2022/12/25 05:52:09;;;;;;;94.55;21.85;;;9.20;99.90;;;;;;4232905;28;20054;-88
2022/12/25 05:54:29;;;;;;;21.73;18.17;;;9.20;99.90;;;;;;4227996;28;20077;-88
2022/12/25 05:56:49;;;;;;;26.98;19.75;;;9.30;99.90;;;;;;4223538;28;20077;-88
2022/12/25 05:59:09;;;;;;;39.28;24.17;;;9.30;99.90;;;;;;4227112;28;20389;-89
2022/12/25 06:01:29;;;;;;;68.05;24.55;;;9.30;99.90;;;;;;4220708;28;20062;-88
2022/12/25 06:03:50;;;;;;;70.95;22.25;;;9.30;99.90;;;;;;4212236;28;20075;-88
2022/12/25 06:06:10;;;;;;;39.67;22.15;;;9.30;99.90;;;;;;4232113;28;20048;-88
2022/12/25 06:08:30;;;;;;;78.05;25.60;;;9.30;99.90;;;;;;4231961;28;20524;-88
2022/12/25 06:10:50;;;;;;;23.75;20.60;;;9.30;99.90;;;;;;4229938;28;20055;-88
2022/12/25 06:13:11;;;;;;;40.83;20.17;;;9.30;99.90;;;;;;4222762;28;20085;-88
2022/12/25 06:15:31;;;;;;;165.65;32.65;;;9.30;99.90;;;;;;4225508;28;20055;-88
2022/12/25 06:17:51;;;;;;;132.88;28.60;;;9.30;99.90;;;;;;4217089;28;20121;-88
2022/12/25 06:20:11;;;;;;;34.95;21.00;;;9.30;99.90;;;;;;4223182;28;20051;-88
2022/12/25 06:22:32;;;;;;;57.75;22.52;;;9.30;99.90;;;;;;4214126;28;20104;-88
2022/12/25 06:24:52;;;;;;;31.55;20.48;;;9.30;99.90;;;;;;4227576;28;20080;-88
2022/12/25 06:27:13;;;;;;;51.80;25.58;;;9.30;99.90;;;;;;4214641;28;20040;-88
2022/12/25 06:29:34;;;;;;;292.10;41.35;;;9.40;99.90;;;;;;4230949;28;20077;-88
2022/12/25 06:31:56;;;;;;;321.73;38.40;;;9.40;99.90;;;;;;4231902;28;20250;-88
2022/12/25 06:34:16;;;;;;;201.07;37.35;;;9.40;99.90;;;;;;4217926;28;20271;-88
2022/12/25 06:36:36;;;;;;;337.15;32.47;;;9.30;99.90;;;;;;4231294;28;20054;-88
2022/12/25 06:39:00;;;;;;;193.15;32.15;;;9.30;99.90;;;;;;4225973;28;20071;-88
2022/12/25 06:41:22;;;;;;;178.10;30.98;;;9.30;99.90;;;;;;4222304;28;20117;-88
2022/12/25 06:43:48;;;;;;;137.93;30.40;;;9.30;99.90;;;;;;4215645;28;20038;-88
2022/12/25 06:46:10;;;;;;;110.05;26.95;;;9.30;99.90;;;;;;4214205;28;20052;-88
2022/12/25 06:48:32;;;;;;;109.95;25.48;;;9.30;99.90;;;;;;4228976;28;20059;-88
2022/12/25 06:50:52;;;;;;;52.85;23.30;;;9.30;99.90;;;;;;4227838;28;20111;-88
2022/12/25 06:53:11;;;;;;;230.60;34.60;;;9.30;99.90;;;;;;4232021;28;20142;-88
2022/12/25 06:55:31;;;;;;;215.27;33.83;;;9.20;99.90;;;;;;4228639;28;20274;-88
2022/12/25 06:57:51;;;;;;;89.45;28.25;;;9.20;99.90;;;;;;4225052;28;20049;-89
2022/12/25 07:00:11;;;;;;;65.55;29.00;;;9.20;99.90;;;;;;4213850;28;20162;-89
2022/12/25 07:02:33;;;;;;;44.28;25.10;;;9.20;99.90;;;;;;4212772;28;20039;-89
2022/12/25 07:04:53;;;;;;;149.77;28.20;;;9.30;99.90;;;;;;4226616;28;20059;-89
2022/12/25 07:07:13;;;;;;;146.35;32.85;;;9.30;99.90;;;;;;4231018;28;20047;-89
2022/12/25 07:09:33;;;;;;;175.23;29.67;;;9.30;99.90;;;;;;4220632;28;20102;-89
2022/12/25 07:12:01;;;;;;;161.63;40.25;;;9.30;99.90;;;;;;4222765;28;20392;-89
2022/12/25 07:14:22;;;;;;;279.40;38.97;;;9.30;99.90;;;;;;4227649;28;20096;-89
2022/12/25 07:16:44;;;;;;;360.35;41.33;;;9.30;99.90;;;;;;4232327;28;20112;-89
2022/12/25 07:19:05;;;;;;;361.45;40.03;;;9.30;99.90;;;;;;4231941;28;20089;-89
2022/12/25 07:21:28;;;;;;;384.08;36.40;;;9.30;99.90;;;;;;4225118;28;20047;-89
2022/12/25 07:23:49;;;;;;;356.55;37.70;;;9.30;99.90;;;;;;4214887;28;20046;-89
2022/12/25 07:26:11;;;;;;;333.52;34.28;;;9.30;99.90;;;;;;4216512;28;20267;-89
2022/12/25 07:28:31;;;;;;;403.93;42.10;;;9.20;99.90;;;;;;4232299;28;20284;-89
2022/12/25 07:30:52;;;;;;;315.23;41.13;;;9.20;99.90;;;;;;4224965;28;20397;-89
2022/12/25 07:33:13;;;;;;;375.90;54.05;;;9.30;99.90;;;;;;4224890;28;20100;-89
2022/12/25 07:35:33;;;;;;;474.60;41.78;;;9.20;99.90;;;;;;4231517;28;20113;-89
2022/12/25 07:37:53;;;;;;;506.98;39.40;;;9.30;99.90;;;;;;4228181;28;20370;-89
2022/12/25 07:40:13;;;;;;;491.33;35.70;;;9.30;99.90;;;;;;4227418;28;20050;-89
2022/12/25 07:42:33;;;;;;;276.88;25.92;;;9.40;99.90;;;;;;4217443;28;20251;-89
2022/12/25 07:44:53;;;;;;;120.40;21.23;;;9.30;99.90;;;;;;4224311;28;20089;-90
2022/12/25 07:47:13;;;;;;;109.43;17.80;;;9.40;99.90;;;;;;4225236;28;20103;-93
2022/12/25 07:49:35;;;;;;;407.02;33.47;;;9.40;99.90;;;;;;4224778;28;20043;-93
2022/12/25 07:51:55;;;;;;;354.15;34.90;;;9.40;99.90;;;;;;4225408;28;20046;-93
2022/12/25 07:54:15;;;;;;;332.45;31.85;;;9.40;99.90;;;;;;4225881;28;20091;-93
2022/12/25 07:56:35;;;;;;;51.08;18.73;;;9.50;99.90;;;;;;4214387;28;20683;-93
2022/12/25 07:58:56;;;;;;;77.68;17.48;;;9.40;99.90;;;;;;4214840;28;20114;-92
2022/12/25 08:01:21;;;;;;;84.95;17.85;;;9.50;99.90;;;;;;4224243;28;20259;-93
2022/12/25 08:03:42;;;;;;;167.38;20.67;;;9.50;99.90;;;;;;4218003;28;20035;-92
2022/12/25 08:06:05;;;;;;;56.35;14.10;;;9.40;99.90;;;;;;4231823;28;20350;-91
2022/12/25 08:08:25;;;;;;;64.32;16.95;;;9.30;99.90;;;;;;4223806;28;20666;-93
2022/12/25 08:10:46;;;;;;;163.65;21.13;;;9.40;99.90;;;;;;4215195;28;20092;-92
2022/12/25 08:13:06;;;;;;;97.40;18.42;;;9.50;99.90;;;;;;4233519;28;20250;-93
2022/12/25 08:15:33;;;;;;;101.30;22.27;;;9.50;99.90;;;;;;4224802;28;20066;-86
2022/12/25 08:17:54;;;;;;;301.40;40.88;;;9.50;99.90;;;;;;4211094;28;20043;-86
2022/12/25 08:20:14;;;;;;;109.88;28.50;;;9.50;99.90;;;;;;4215614;28;20110;-86
2022/12/25 08:22:34;;;;;;;181.40;25.92;;;9.50;99.90;;;;;;4229720;28;20047;-90
2022/12/25 08:24:54;;;;;;;211.75;24.17;;;9.60;99.90;;;;;;4223902;28;20074;-87
2022/12/25 08:27:15;;;;;;;214.43;22.70;;;9.50;99.90;;;;;;4231704;28;20074;-86
2022/12/25 08:29:35;;;;;;;81.25;15.57;;;9.50;99.90;;;;;;4214881;28;20324;-86
2022/12/25 08:31:54;;;;;;;83.28;16.40;;;9.50;99.90;;;;;;4213709;28;20043;-86
2022/12/25 08:34:14;;;;;;;197.90;19.55;;;9.60;99.90;;;;;;4224431;28;20093;-86
2022/12/25 08:36:34;;;;;;;116.60;17.98;;;9.50;99.90;;;;;;4223586;28;20047;-86
2022/12/25 08:38:54;;;;;;;245.20;21.88;;;9.50;99.90;;;;;;4211778;28;20048;-87
2022/12/25 08:41:22;;;;;;;218.52;21.77;;;9.50;99.90;;;;;;4229267;28;20039;-86
2022/12/25 08:43:42;;;;;;;219.10;23.48;;;9.60;99.90;;;;;;4213445;28;20046;-86
2022/12/25 08:46:03;;;;;;;23.13;15.43;;;9.60;99.90;;;;;;4225715;28;20073;-86
2022/12/25 08:48:23;;;;;;;186.30;24.63;;;9.80;99.90;;;;;;4217502;28;20082;-86
2022/12/25 08:50:48;;;;;;;435.40;51.22;;;9.70;99.90;;;;;;4214941;28;20116;-86
2022/12/25 08:53:08;;;;;;;327.23;33.15;;;9.50;99.90;;;;;;4220006;28;20046;-86
2022/12/25 08:55:28;;;;;;;271.95;22.05;;;9.50;99.90;;;;;;4226915;28;20296;-86
2022/12/25 08:57:50;;;;;;;32.33;13.38;;;9.40;99.90;;;;;;4230895;28;20061;-86
2022/12/25 09:00:12;;;;;;;85.72;17.17;;;9.50;99.90;;;;;;4227303;28;20048;-86
2022/12/25 09:02:32;;;;;;;116.25;19.73;;;9.60;99.90;;;;;;4215835;28;20051;-86
2022/12/25 09:04:52;;;;;;;50.30;15.52;;;9.60;99.90;;;;;;4213420;28;20105;-86
2022/12/25 09:07:11;;;;;;;23.25;15.18;;;9.70;99.90;;;;;;4230372;28;20378;-86
2022/12/25 09:09:31;;;;;;;19.15;16.02;;;9.70;99.90;;;;;;4212954;28;20081;-86
2022/12/25 09:11:51;;;;;;;284.67;27.55;;;9.80;99.90;;;;;;4214686;28;20055;-87
2022/12/25 09:14:13;;;;;;;132.35;18.77;;;9.70;99.90;;;;;;4214786;28;20111;-86
2022/12/25 09:16:33;;;;;;;41.05;16.38;;;9.70;99.90;;;;;;4231185;28;20047;-86
2022/12/25 09:19:01;;;;;;;227.48;26.65;;;9.70;99.90;;;;;;4232973;28;20108;-87
2022/12/25 09:21:21;;;;;;;212.95;21.60;;;9.80;99.90;;;;;;4216394;28;20047;-86
2022/12/25 09:23:41;;;;;;;237.98;23.00;;;9.70;99.90;;;;;;4233002;28;20089;-86
2022/12/25 09:26:03;;;;;;;216.75;20.98;;;9.60;99.90;;;;;;4231904;28;20090;-86
2022/12/25 09:28:23;;;;;;;310.67;25.67;;;9.70;99.90;;;;;;4228852;28;20070;-86
2022/12/25 09:30:43;;;;;;;182.45;23.40;;;9.70;99.90;;;;;;4229155;28;20050;-86
2022/12/25 09:33:03;;;;;;;270.00;26.95;;;9.80;99.90;;;;;;4231039;28;20078;-86
2022/12/25 09:35:23;;;;;;;68.68;44.63;;;9.80;99.90;;;;;;4224103;28;20389;-86
2022/12/25 09:37:43;;;;;;;205.55;23.60;;;10.00;99.90;;;;;;4229709;28;20102;-86
2022/12/25 09:40:04;;;;;;;130.13;21.23;;;10.00;99.90;;;;;;4216848;28;20047;-86
2022/12/25 09:42:27;;;;;;;54.70;21.13;;;10.00;99.90;;;;;;4230386;28;20082;-86
2022/12/25 09:44:54;;;;;;;144.82;25.38;;;10.10;99.90;;;;;;4230527;28;20082;-86
2022/12/25 09:47:18;;;;;;;150.43;24.88;;;10.20;99.90;;;;;;4230066;28;20047;-86
2022/12/25 09:50:00;;;;;;;77.82;22.48;;;10.20;99.90;;;;;;4226319;28;20073;-86
2022/12/25 09:52:54;;;;;;;74.22;20.75;;;10.20;99.90;;;;;;4224674;28;20128;-87
2022/12/25 09:55:18;;;;;;;37.65;20.88;;;10.20;99.90;;;;;;4226353;28;20051;-86
2022/12/25 09:57:40;;;;;;;102.88;22.23;;;10.20;99.90;;;;;;4240667;28;20103;-86
2022/12/25 10:00:00;;;;;;;75.93;23.58;;;10.30;99.90;;;;;;4240752;28;20084;-87
2022/12/25 10:02:42;;;;;;;59.05;21.77;;;10.40;99.90;;;;;;4224546;28;20031;-87
2022/12/25 10:05:24;;;;;;;50.78;26.13;;;10.40;99.90;;;;;;4241865;28;20034;-86
2022/12/25 10:08:03;;;;;;;95.43;23.95;;;10.50;99.90;;;;;;4227674;28;20047;-87
2022/12/25 10:10:58;;;;;;;134.32;29.95;;;10.40;99.90;;;;;;4227688;28;20486;-86
2022/12/25 10:14:06;;;;;;;107.30;32.55;;;10.30;99.90;;;;;;4223835;28;20091;-86
2022/12/25 10:17:09;;;;;;;123.55;30.13;;;10.40;99.90;;;;;;4233338;28;20360;-87
2022/12/25 10:19:32;;;;;;;119.93;45.90;;;10.40;99.90;;;;;;4194404;28;20089;-86
2022/12/25 10:21:57;;;;;;;101.07;29.65;;;10.50;99.90;;;;;;4227061;28;20108;-87
2022/12/25 10:24:16;;;;;;;52.20;27.60;;;10.60;99.90;;;;;;4226799;28;20051;-87
2022/12/25 10:26:37;;;;;;;48.80;25.63;;;10.70;99.90;;;;;;4225552;28;20088;-88
2022/12/25 10:28:59;;;;;;;43.97;23.88;;;10.70;99.90;;;;;;4221489;28;20085;-85
2022/12/25 10:31:22;;;;;;;34.37;22.07;;;10.80;99.90;;;;;;4230799;28;20061;-86
2022/12/25 10:33:42;;;;;;;;;;;10.90;99.90;;;;;;4212151;28;20040;-86
2022/12/25 10:36:02;;;;;;;39.22;25.77;;;10.90;99.90;;;;;;4229268;28;20090;-85
2022/12/25 10:38:22;;;;;;;45.28;30.48;;;11.00;99.90;;;;;;4218799;28;20082;-86
2022/12/25 10:41:19;;;;;;;47.35;30.70;;;11.10;99.90;;;;;;4221063;28;20051;-86
2022/12/25 10:43:52;;;;;;;32.10;23.17;;;11.20;99.90;;;;;;4216055;28;20070;-86
2022/12/25 10:46:14;;;;;;;39.83;24.92;;;11.20;99.90;;;;;;4210681;28;20086;-86
2022/12/25 10:48:34;;;;;;;36.42;26.13;;;11.00;99.90;;;;;;4215439;28;20444;-86
2022/12/25 10:50:55;;;;;;;44.00;31.50;;;11.00;99.90;;;;;;4230932;28;20043;-86
2022/12/25 10:53:27;;;;;;;42.80;29.50;;;11.20;99.90;;;;;;4217470;28;20058;-86
2022/12/25 10:56:02;;;;;;;37.85;26.35;;;11.30;99.90;;;;;;4213745;28;20445;-86
2022/12/25 10:58:22;;;;;;;29.45;19.77;;;11.50;99.90;;;;;;4227909;28;20069;-86
2022/12/25 11:00:55;;;;;;;22.52;18.73;;;11.60;99.90;;;;;;4229871;28;20142;-86
2022/12/25 11:03:25;;;;;;;23.08;17.48;;;11.80;99.90;;;;;;4229759;28;20059;-85
2022/12/25 11:05:50;;;;;;;42.63;30.25;;;12.10;99.90;;;;;;4229086;28;20259;-86
2022/12/25 11:08:20;;;;;;;32.80;21.65;;;12.20;99.90;;;;;;4226216;28;20294;-86
2022/12/25 11:10:43;;;;;;;17.73;12.75;;;12.30;99.90;;;;;;4214302;28;20038;-86
2022/12/25 11:13:07;;;;;;;;;;;12.40;99.90;;;;;;4213395;28;20102;-86
2022/12/25 11:15:41;;;;;;;20.40;17.73;;;12.30;99.90;;;;;;4229192;28;19931;-86
2022/12/25 11:18:02;;;;;;;14.77;13.48;;;12.40;99.90;;;;;;4228661;28;20047;-87
2022/12/25 11:20:23;;;;;;;28.63;24.08;;;12.70;99.90;;;;;;4230177;28;20062;-86
2022/12/25 11:22:46;;;;;;;25.20;22.23;;;12.50;99.90;;;;;;4227631;28;20046;-86
2022/12/25 11:25:26;;;;;;;29.85;24.60;;;12.40;99.90;;;;;;4231052;28;20369;-86
2022/12/25 11:27:59;;;;;;;37.80;26.17;;;12.30;99.90;;;;;;4211030;28;20331;-86
2022/12/25 11:30:20;;;;;;;;;;;12.30;99.90;;;;;;4232592;28;20074;-87
2022/12/25 11:32:54;;;;;;;33.10;26.40;;;12.40;99.90;;;;;;4226386;28;19953;-86
2022/12/25 11:35:17;;;;;;;30.65;24.45;;;12.60;99.90;;;;;;4223816;28;20047;-86
2022/12/25 11:37:53;;;;;;;33.63;26.67;;;12.60;99.90;;;;;;4218844;28;20058;-86
2022/12/25 11:40:23;;;;;;;38.17;28.30;;;12.60;99.90;;;;;;4228510;28;20039;-86
2022/12/25 11:42:51;;;;;;;36.70;27.13;;;12.50;99.90;;;;;;4234381;28;20084;-86
2022/12/25 11:45:19;;;;;;;39.75;28.92;;;12.60;99.90;;;;;;4226459;28;20436;-86
2022/12/25 11:48:04;;;;;;;98.38;59.00;;;12.50;99.90;;;;;;4215239;28;20051;-86
2022/12/25 11:50:31;;;;;;;95.95;59.10;;;12.60;99.90;;;;;;4226368;28;20231;-86
2022/12/25 11:52:52;;;;;;;34.08;29.45;;;12.40;99.90;;;;;;4215424;28;20048;-86
2022/12/25 11:55:18;;;;;;;36.22;28.98;;;12.40;99.90;;;;;;4228637;28;20046;-87
2022/12/25 11:57:40;;;;;;;38.33;30.45;;;12.40;99.90;;;;;;4213306;28;20079;-86
2022/12/25 12:00:08;;;;;;;31.02;24.77;;;12.30;99.90;;;;;;4217069;28;20121;-86
2022/12/25 12:02:42;;;;;;;29.55;23.92;;;12.40;99.90;;;;;;4224804;28;20341;-88
2022/12/25 12:05:22;;;;;;;29.67;24.48;;;12.40;99.90;;;;;;4228355;28;20062;-89
2022/12/25 12:07:57;;;;;;;28.67;21.73;;;12.40;99.90;;;;;;4219023;28;20043;-87
2022/12/25 12:10:23;;;;;;;78.97;52.67;;;12.30;99.90;;;;;;4234952;28;20082;-87
2022/12/25 12:13:00;;;;;;;38.08;29.15;;;12.30;99.90;;;;;;4213203;28;20099;-86
2022/12/25 12:15:44;;;;;;;22.55;20.35;;;12.30;99.90;;;;;;4229450;28;20172;-87
2022/12/25 12:18:09;;;;;;;21.95;19.75;;;12.40;99.90;;;;;;4223912;28;20152;-86
2022/12/25 12:20:32;;;;;;;22.42;19.27;;;12.40;99.90;;;;;;4229561;28;20082;-86
2022/12/25 12:22:52;;;;;;;20.17;18.02;;;12.40;99.90;;;;;;4232104;28;20315;-87
2022/12/25 12:25:18;;;;;;;21.00;19.05;;;12.40;99.90;;;;;;4232768;28;20046;-87
2022/12/25 12:27:39;;;;;;;21.45;18.27;;;12.50;99.90;;;;;;4217537;28;20081;-86
2022/12/25 12:29:59;;;;;;;16.40;14.77;;;12.50;99.90;;;;;;4216732;28;20043;-87
2022/12/25 12:32:44;;;;;;;15.63;14.02;;;12.50;99.90;;;;;;4211968;28;20063;-87
2022/12/25 12:35:26;;;;;;;18.77;16.65;;;12.50;99.90;;;;;;4222979;28;20365;-87
2022/12/25 12:37:53;;;;;;;17.98;16.10;;;12.40;99.90;;;;;;4221080;28;20051;-87
2022/12/25 12:40:36;;;;;;;23.70;19.33;;;12.40;99.90;;;;;;4218697;28;20047;-87
2022/12/25 12:42:56;;;;;;;19.20;17.20;;;12.40;99.90;;;;;;4229524;28;20092;-87
2022/12/25 12:45:19;;;;;;;17.08;15.40;;;12.40;99.90;;;;;;4228773;28;20089;-87
2022/12/25 12:47:42;;;;;;;17.85;16.00;;;12.40;99.90;;;;;;4222805;28;20377;-87
2022/12/25 12:50:04;;;;;;;18.60;16.80;;;12.40;99.90;;;;;;4238470;28;20043;-86
2022/12/25 12:52:37;;;;;;;26.65;19.33;;;12.40;99.90;;;;;;4231624;28;20109;-86
2022/12/25 12:55:05;;;;;;;44.25;32.05;;;12.60;99.90;;;;;;4214914;28;20075;-86
2022/12/25 12:57:29;;;;;;;29.08;25.52;;;12.70;99.90;;;;;;4232073;28;20055;-86
2022/12/25 12:59:49;;;;;;;16.45;14.77;;;12.90;99.90;;;;;;4216773;28;20055;-87
2022/12/25 13:02:39;;;;;;;14.43;13.18;;;12.90;99.90;;;;;;4223531;28;20047;-87
2022/12/25 13:05:02;;;;;;;13.68;12.38;;;13.00;99.90;;;;;;4212424;28;20047;-87
2022/12/25 13:07:42;;;;;;;14.13;12.80;;;13.40;99.90;;;;;;4215123;28;20094;-86
2022/12/25 13:10:19;;;;;;;14.93;13.35;;;13.60;99.90;;;;;;4227976;28;20082;-86
2022/12/25 13:12:39;;;;;;;12.65;11.57;;;14.00;99.90;;;;;;4230463;28;20082;-87
2022/12/25 13:14:59;;;;;;;18.27;16.33;;;14.20;99.90;;;;;;4234485;28;20042;-87
2022/12/25 13:17:24;;;;;;;17.02;15.43;;;14.20;99.90;;;;;;4229139;28;20107;-86
2022/12/25 13:19:45;;;;;;;25.67;22.73;;;14.40;99.90;;;;;;4216585;28;20047;-86
2022/12/25 13:22:06;;;;;;;16.23;14.77;;;14.30;99.90;;;;;;4214877;28;20379;-86
2022/12/25 13:24:29;;;;;;;22.98;16.85;;;14.60;99.90;;;;;;4230512;28;20101;-86
2022/12/25 13:26:50;;;;;;;14.10;13.13;;;14.70;99.90;;;;;;4224018;28;20090;-86
2022/12/25 13:29:31;;;;;;;14.00;12.80;;;14.90;99.90;;;;;;4224044;28;20074;-86
2022/12/25 13:31:52;;;;;;;18.63;16.30;;;14.80;99.90;;;;;;4228868;28;20270;-86
2022/12/25 13:34:23;;;;;;;15.07;13.73;;;14.70;99.90;;;;;;4214327;28;20150;-86
2022/12/25 13:36:43;;;;;;;20.15;17.88;;;14.40;99.90;;;;;;4229676;28;20078;-86
2022/12/25 13:39:07;;;;;;;14.68;13.40;;;14.20;99.90;;;;;;4217434;28;20117;-86
2022/12/25 13:44:19;;;;;;;17.08;15.68;;;14.00;99.90;;;;;;4228221;28;20078;-86
2022/12/25 13:46:39;;;;;;;14.65;13.45;;;14.20;99.90;;;;;;4226213;28;20051;-86
2022/12/25 13:49:00;;;;;;;12.68;11.50;;;14.20;99.90;;;;;;4222379;28;20077;-86
2022/12/25 13:51:20;;;;;;;13.32;12.10;;;14.20;99.90;;;;;;4228435;28;20239;-86
2022/12/25 13:53:41;;;;;;;12.68;10.82;;;14.20;99.90;;;;;;4224582;28;20397;-86
2022/12/25 13:56:01;;;;;;;13.02;11.77;;;14.40;99.90;;;;;;4210719;28;20522;-86
2022/12/25 13:58:26;;;;;;;12.00;11.00;;;14.70;99.90;;;;;;4217146;28;20039;-87
2022/12/25 14:00:49;;;;;;;10.35;9.50;;;14.70;99.90;;;;;;4230311;28;20104;-86